sensor_id;sensor_type;location;lat;lon;timestamp;P1;durP1;ratioP1;P2;durP2;ratioP2
80163;SDS011;69489;55.130;61.268;2023-04-29T00:02:12;12.52;;;6.90;;
80163;SDS011;69489;55.130;61.268;2023-04-29T00:04:38;10.02;;;7.18;;
80163;SDS011;69489;55.130;61.268;2023-04-29T00:07:04;8.85;;;5.93;;
80163;SDS011;69489;55.130;61.268;2023-04-29T00:09:31;8.75;;;6.72;;
80163;SDS011;69489;55.130;61.268;2023-04-29T00:11:57;9.18;;;7.00;;
80163;SDS011;69489;55.130;61.268;2023-04-29T00:14:23;8.48;;;6.50;;
80163;SDS011;69489;55.130;61.268;2023-04-29T00:16:49;9.75;;;6.75;;
80163;SDS011;69489;55.130;61.268;2023-04-29T00:19:14;7.95;;;6.25;;
80163;SDS011;69489;55.130;61.268;2023-04-29T00:21:42;7.50;;;6.20;;
80163;SDS011;69489;55.130;61.268;2023-04-29T00:24:08;8.57;;;6.50;;
80163;SDS011;69489;55.130;61.268;2023-04-29T00:26:34;8.63;;;7.18;;
80163;SDS011;69489;55.130;61.268;2023-04-29T00:29:00;10.43;;;7.20;;
80163;SDS011;69489;55.130;61.268;2023-04-29T00:31:25;7.95;;;6.50;;
80163;SDS011;69489;55.130;61.268;2023-04-29T00:33:51;6.10;;;5.47;;
80163;SDS011;69489;55.130;61.268;2023-04-29T00:36:17;8.73;;;5.85;;
80163;SDS011;69489;55.130;61.268;2023-04-29T00:38:43;6.18;;;5.18;;
80163;SDS011;69489;55.130;61.268;2023-04-29T00:41:08;7.53;;;5.80;;
80163;SDS011;69489;55.130;61.268;2023-04-29T00:46:00;11.40;;;5.82;;
80163;SDS011;69489;55.130;61.268;2023-04-29T00:48:26;8.50;;;5.38;;
80163;SDS011;69489;55.130;61.268;2023-04-29T00:50:52;6.85;;;5.22;;
80163;SDS011;69489;55.130;61.268;2023-04-29T00:53:18;8.00;;;4.88;;
80163;SDS011;69489;55.130;61.268;2023-04-29T00:55:45;8.43;;;5.05;;
80163;SDS011;69489;55.130;61.268;2023-04-29T00:58:12;6.65;;;5.05;;
80163;SDS011;69489;55.130;61.268;2023-04-29T01:00:38;5.80;;;4.65;;
80163;SDS011;69489;55.130;61.268;2023-04-29T01:03:05;5.68;;;4.50;;
80163;SDS011;69489;55.130;61.268;2023-04-29T01:05:33;7.75;;;4.82;;
80163;SDS011;69489;55.130;61.268;2023-04-29T01:10:43;4.90;;;3.78;;
80163;SDS011;69489;55.130;61.268;2023-04-29T01:13:17;6.15;;;4.00;;
80163;SDS011;69489;55.130;61.268;2023-04-29T01:16:00;5.20;;;4.00;;
80163;SDS011;69489;55.130;61.268;2023-04-29T01:18:40;4.38;;;3.85;;
80163;SDS011;69489;55.130;61.268;2023-04-29T01:21:10;3.55;;;3.00;;
80163;SDS011;69489;55.130;61.268;2023-04-29T01:23:35;4.32;;;3.05;;
80163;SDS011;69489;55.130;61.268;2023-04-29T01:26:01;5.40;;;3.53;;
80163;SDS011;69489;55.130;61.268;2023-04-29T01:31:17;4.72;;;3.42;;
80163;SDS011;69489;55.130;61.268;2023-04-29T01:39:13;3.53;;;3.17;;
80163;SDS011;69489;55.130;61.268;2023-04-29T01:44:35;5.03;;;3.25;;
80163;SDS011;69489;55.130;61.268;2023-04-29T01:47:04;4.95;;;3.20;;
80163;SDS011;69489;55.130;61.268;2023-04-29T01:51:59;5.63;;;3.78;;
80163;SDS011;69489;55.130;61.268;2023-04-29T01:54:25;5.80;;;3.15;;
80163;SDS011;69489;55.130;61.268;2023-04-29T01:56:51;6.60;;;3.25;;
80163;SDS011;69489;55.130;61.268;2023-04-29T02:01:44;6.53;;;3.53;;
80163;SDS011;69489;55.130;61.268;2023-04-29T02:04:09;5.50;;;3.90;;
80163;SDS011;69489;55.130;61.268;2023-04-29T02:06:35;5.65;;;4.13;;
80163;SDS011;69489;55.130;61.268;2023-04-29T02:09:01;4.40;;;3.13;;
80163;SDS011;69489;55.130;61.268;2023-04-29T02:11:27;7.65;;;3.08;;
80163;SDS011;69489;55.130;61.268;2023-04-29T02:13:53;4.78;;;3.10;;
80163;SDS011;69489;55.130;61.268;2023-04-29T02:16:19;5.40;;;3.30;;
80163;SDS011;69489;55.130;61.268;2023-04-29T02:18:45;5.63;;;3.50;;
80163;SDS011;69489;55.130;61.268;2023-04-29T02:21:10;5.00;;;3.85;;
80163;SDS011;69489;55.130;61.268;2023-04-29T02:23:36;5.25;;;3.15;;
80163;SDS011;69489;55.130;61.268;2023-04-29T02:26:02;4.35;;;2.72;;
80163;SDS011;69489;55.130;61.268;2023-04-29T02:28:32;5.20;;;3.08;;
80163;SDS011;69489;55.130;61.268;2023-04-29T02:30:59;5.85;;;3.42;;
80163;SDS011;69489;55.130;61.268;2023-04-29T02:33:25;4.90;;;3.45;;
80163;SDS011;69489;55.130;61.268;2023-04-29T02:35:50;3.85;;;3.30;;
80163;SDS011;69489;55.130;61.268;2023-04-29T02:38:16;3.80;;;2.90;;
80163;SDS011;69489;55.130;61.268;2023-04-29T02:40:43;4.88;;;3.47;;
80163;SDS011;69489;55.130;61.268;2023-04-29T02:43:10;5.18;;;2.90;;
80163;SDS011;69489;55.130;61.268;2023-04-29T02:45:36;3.80;;;2.58;;
80163;SDS011;69489;55.130;61.268;2023-04-29T02:48:04;5.82;;;3.17;;
80163;SDS011;69489;55.130;61.268;2023-04-29T02:50:31;4.97;;;3.00;;
80163;SDS011;69489;55.130;61.268;2023-04-29T02:52:57;4.78;;;3.10;;
80163;SDS011;69489;55.130;61.268;2023-04-29T02:55:23;3.97;;;3.10;;
80163;SDS011;69489;55.130;61.268;2023-04-29T02:57:49;5.03;;;2.83;;
80163;SDS011;69489;55.130;61.268;2023-04-29T03:00:15;5.40;;;3.55;;
80163;SDS011;69489;55.130;61.268;2023-04-29T03:02:40;5.07;;;3.03;;
80163;SDS011;69489;55.130;61.268;2023-04-29T03:05:06;6.18;;;3.20;;
80163;SDS011;69489;55.130;61.268;2023-04-29T03:07:34;9.43;;;6.60;;
80163;SDS011;69489;55.130;61.268;2023-04-29T03:09:59;4.57;;;3.53;;
